Time;durP1;ratioP1;P1;durP2;ratioP2;P2;SDS_P1;SDS_P2;PMS_P1;PMS_P2;Temp;Humidity;BMP_temperature;BMP_pressure;BME280_temperature;BME280_humidity;BME280_pressure;Samples;Min_cycle;Max_cycle;Signal;HPM_P1;HPM_P2
2023/05/29 00:00:07;;;;;;;8.52;1.05;;;9.00;99.90;;;;;;5095332;28;20109;-83
2023/05/29 00:02:34;;;;;;;10.10;1.17;;;8.90;99.90;;;;;;5093885;28;20081;-82
2023/05/29 00:05:02;;;;;;;3.00;0.90;;;9.20;99.90;;;;;;5093550;28;20054;-82
2023/05/29 00:07:30;;;;;;;11.75;1.00;;;8.90;99.90;;;;;;5095801;28;20431;-82
2023/05/29 00:09:55;;;;;;;6.18;0.90;;;9.00;99.90;;;;;;5096119;28;20043;-82
2023/05/29 00:12:22;;;;;;;5.82;0.80;;;8.90;99.90;;;;;;5093568;28;20052;-83
2023/05/29 00:14:48;;;;;;;8.75;0.82;;;9.30;99.90;;;;;;5086369;28;20043;-82
2023/05/29 00:17:15;;;;;;;5.55;0.73;;;8.90;99.90;;;;;;5096275;28;20419;-84
2023/05/29 00:19:42;;;;;;;4.03;1.23;;;8.90;99.90;;;;;;5078543;28;20048;-84
2023/05/29 00:22:08;;;;;;;3.58;0.88;;;8.90;99.90;;;;;;5096653;28;20369;-83
2023/05/29 00:24:33;;;;;;;8.88;1.02;;;8.90;99.90;;;;;;5095310;28;20040;-86
2023/05/29 00:26:59;;;;;;;5.60;0.80;;;8.80;99.90;;;;;;5093107;28;20089;-84
2023/05/29 00:29:25;;;;;;;6.97;0.68;;;8.90;99.90;;;;;;5094747;28;20040;-82
2023/05/29 00:31:53;;;;;;;6.22;0.95;;;8.80;99.90;;;;;;5095125;28;20156;-83
2023/05/29 00:34:19;;;;;;;4.25;0.75;;;9.10;99.90;;;;;;5094148;28;20050;-82
2023/05/29 00:36:46;;;;;;;5.40;0.75;;;9.40;99.90;;;;;;5093314;28;20105;-82
2023/05/29 00:39:12;;;;;;;5.18;0.70;;;8.80;99.90;;;;;;5094714;28;20048;-84
2023/05/29 00:41:38;;;;;;;9.52;1.20;;;8.80;99.90;;;;;;5094801;28;20051;-83
2023/05/29 00:44:03;;;;;;;9.23;1.00;;;8.80;99.90;;;;;;5094645;28;20477;-83
2023/05/29 00:46:30;;;;;;;11.35;1.20;;;8.80;99.90;;;;;;5094021;28;20115;-83
2023/05/29 00:48:57;;;;;;;8.48;0.90;;;9.00;99.90;;;;;;5082914;28;20080;-83
2023/05/29 00:51:25;;;;;;;5.30;0.70;;;8.80;99.90;;;;;;5074408;28;20048;-83
2023/05/29 00:53:52;;;;;;;6.63;1.10;;;9.70;99.90;;;;;;5055974;28;20048;-83
2023/05/29 00:56:20;;;;;;;8.48;1.10;;;8.80;99.90;;;;;;5056549;28;20448;-82
2023/05/29 00:58:51;;;;;;;6.50;0.90;;;8.80;99.90;;;;;;5074263;28;20045;-84
2023/05/29 01:01:18;;;;;;;5.35;0.60;;;8.80;99.90;;;;;;5074480;28;20145;-83
2023/05/29 01:03:45;;;;;;;4.05;0.88;;;8.80;99.90;;;;;;5039704;28;20055;-82
2023/05/29 01:06:11;;;;;;;7.30;1.02;;;8.80;99.90;;;;;;5074071;28;20499;-84
2023/05/29 01:08:37;;;;;;;4.03;1.08;;;8.80;99.90;;;;;;5073999;28;20063;-84
2023/05/29 01:11:22;;;;;;;8.65;1.08;;;9.30;99.90;;;;;;5073871;28;20096;-84
2023/05/29 01:13:49;;;;;;;4.70;0.70;;;8.90;99.90;;;;;;5074017;28;20044;-82
2023/05/29 01:16:26;;;;;;;5.82;1.25;;;9.10;99.90;;;;;;5074867;28;20534;-82
2023/05/29 01:19:05;;;;;;;7.60;1.10;;;8.90;99.90;;;;;;5056017;28;20048;-84
2023/05/29 01:21:50;;;;;;;10.70;1.10;;;9.10;99.90;;;;;;5055760;28;20048;-82
2023/05/29 01:24:21;;;;;;;9.48;0.95;;;9.60;99.90;;;;;;5073600;28;20052;-83
2023/05/29 01:26:51;;;;;;;7.90;0.93;;;9.00;99.90;;;;;;5073764;28;20045;-82
2023/05/29 01:29:22;;;;;;;6.47;1.00;;;9.00;99.90;;;;;;5072603;28;20120;-82
2023/05/29 01:31:49;;;;;;;14.88;1.80;;;9.10;99.90;;;;;;5093911;28;20036;-82
2023/05/29 01:34:15;;;;;;;7.15;1.35;;;9.00;99.90;;;;;;5093803;28;20048;-82
2023/05/29 01:36:41;;;;;;;7.57;1.10;;;9.10;99.90;;;;;;5092878;28;20040;-83
2023/05/29 01:39:07;;;;;;;7.53;0.82;;;9.10;99.90;;;;;;5093826;28;20193;-82
2023/05/29 01:41:34;;;;;;;11.65;1.48;;;9.00;99.90;;;;;;5093734;28;20044;-83
2023/05/29 01:44:04;;;;;;;2.63;0.93;;;9.40;99.90;;;;;;5092794;28;20047;-83
2023/05/29 01:46:29;;;;;;;9.02;1.20;;;9.10;99.90;;;;;;5093430;28;20453;-82
2023/05/29 01:48:55;;;;;;;6.88;1.00;;;9.00;99.90;;;;;;5075331;28;20040;-83
2023/05/29 01:51:21;;;;;;;7.55;1.23;;;9.60;99.90;;;;;;5091958;28;20115;-82
2023/05/29 01:53:47;;;;;;;9.45;1.00;;;9.00;99.90;;;;;;5093331;28;20067;-85
2023/05/29 01:56:13;;;;;;;6.45;1.48;;;9.00;99.90;;;;;;5093345;28;20044;-83
2023/05/29 01:58:39;;;;;;;7.38;0.95;;;9.00;99.90;;;;;;5074591;28;20436;-83
2023/05/29 02:01:06;;;;;;;6.32;0.70;;;9.00;99.90;;;;;;5091642;28;20047;-84
2023/05/29 02:03:33;;;;;;;7.75;1.02;;;8.90;99.90;;;;;;5092634;28;20496;-83
2023/05/29 02:06:00;;;;;;;9.27;1.00;;;9.20;99.90;;;;;;5073104;28;20119;-87
2023/05/29 02:08:26;;;;;;;5.97;0.80;;;9.00;99.90;;;;;;5072717;28;20044;-85
2023/05/29 02:10:51;;;;;;;3.42;0.70;;;8.90;99.90;;;;;;5055290;28;20072;-83
2023/05/29 02:13:17;;;;;;;6.03;1.33;;;8.90;99.90;;;;;;5073185;28;20052;-82
2023/05/29 02:15:44;;;;;;;5.32;1.25;;;9.00;99.90;;;;;;5072878;28;20078;-84
2023/05/29 02:18:13;;;;;;;9.63;0.80;;;8.90;99.90;;;;;;5072748;28;20041;-85
2023/05/29 02:20:40;;;;;;;6.68;0.98;;;9.60;99.90;;;;;;5054631;28;20071;-82
2023/05/29 02:23:05;;;;;;;2.40;0.60;;;8.90;99.90;;;;;;5054756;28;20495;-84
2023/05/29 02:25:31;;;;;;;1.75;0.63;;;9.00;99.90;;;;;;5080724;28;20032;-82
2023/05/29 02:27:57;;;;;;;5.82;1.00;;;9.40;99.90;;;;;;5092789;28;20054;-83
2023/05/29 02:30:23;;;;;;;9.15;1.80;;;8.90;99.90;;;;;;5092899;28;20450;-85
2023/05/29 02:32:48;;;;;;;3.80;0.70;;;9.00;99.90;;;;;;5092941;28;20051;-85
2023/05/29 02:35:15;;;;;;;2.92;0.60;;;9.30;99.90;;;;;;5074769;28;20047;-83
2023/05/29 02:37:41;;;;;;;5.80;0.80;;;9.00;99.90;;;;;;5074717;28;20119;-84
2023/05/29 02:40:08;;;;;;;4.25;0.60;;;9.10;99.90;;;;;;5086132;28;20036;-83
2023/05/29 02:42:34;;;;;;;5.97;0.75;;;8.90;99.90;;;;;;5074544;28;20044;-84
2023/05/29 02:45:00;;;;;;;6.40;0.70;;;8.90;99.90;;;;;;5092008;28;20188;-85
2023/05/29 02:47:26;;;;;;;5.53;0.65;;;8.90;99.90;;;;;;5092669;28;20048;-86
2023/05/29 02:49:51;;;;;;;3.40;0.57;;;9.20;99.90;;;;;;5074573;28;20044;-82
2023/05/29 02:52:17;;;;;;;5.00;0.70;;;8.90;99.90;;;;;;5092738;28;20136;-84
2023/05/29 02:54:42;;;;;;;5.15;0.70;;;9.60;99.90;;;;;;5092496;28;20048;-86
2023/05/29 02:57:09;;;;;;;4.05;0.70;;;8.90;99.90;;;;;;5074429;28;20045;-88
2023/05/29 02:59:35;;;;;;;4.82;0.63;;;8.90;99.90;;;;;;5090821;28;20408;-86
2023/05/29 03:02:00;;;;;;;5.68;0.80;;;8.90;99.90;;;;;;5092242;28;20048;-84
2023/05/29 03:04:27;;;;;;;4.38;0.77;;;8.90;99.90;;;;;;5092647;28;20111;-83
2023/05/29 03:06:54;;;;;;;4.97;0.70;;;9.00;99.90;;;;;;5092478;28;20084;-85
2023/05/29 03:09:20;;;;;;;6.28;0.95;;;9.00;99.90;;;;;;5074562;28;20495;-84
2023/05/29 03:11:47;;;;;;;4.07;1.00;;;9.10;99.90;;;;;;5092289;28;20050;-83
2023/05/29 03:14:13;;;;;;;8.73;0.95;;;9.10;99.90;;;;;;5091828;28;20075;-87
2023/05/29 03:16:40;;;;;;;6.28;1.08;;;9.10;99.90;;;;;;5076164;28;20467;-86
2023/05/29 03:19:07;;;;;;;9.93;1.17;;;9.50;99.90;;;;;;5088134;28;20055;-84
2023/05/29 03:21:33;;;;;;;5.13;0.65;;;9.20;99.90;;;;;;5075821;28;20048;-84
2023/05/29 03:23:59;;;;;;;9.05;0.90;;;9.30;99.90;;;;;;5076064;28;20052;-87
2023/05/29 03:26:25;;;;;;;12.10;0.90;;;9.50;99.90;;;;;;5057617;28;20078;-89
2023/05/29 03:28:51;;;;;;;15.40;1.30;;;9.30;99.90;;;;;;5057962;28;20053;-86
2023/05/29 03:31:17;;;;;;;7.38;1.25;;;9.40;99.90;;;;;;5075933;28;20045;-88
2023/05/29 03:33:42;;;;;;;6.95;1.38;;;9.40;99.90;;;;;;5082029;28;20040;-87
2023/05/29 03:36:08;;;;;;;11.00;1.48;;;9.50;99.90;;;;;;5076232;28;20044;-87
2023/05/29 03:38:34;;;;;;;3.63;0.70;;;9.50;99.90;;;;;;5096161;28;20040;-88
2023/05/29 03:41:00;;;;;;;14.50;1.33;;;9.40;99.90;;;;;;5085947;28;20036;-86
2023/05/29 03:43:25;;;;;;;10.40;1.08;;;9.50;99.90;;;;;;5094835;28;20482;-86
2023/05/29 03:45:51;;;;;;;8.27;0.93;;;9.50;99.90;;;;;;5079241;28;20044;-82
2023/05/29 03:48:16;;;;;;;11.75;1.00;;;9.50;99.90;;;;;;5098432;28;20050;-86
2023/05/29 03:50:42;;;;;;;3.85;0.70;;;9.50;99.90;;;;;;5095631;28;20369;-85
2023/05/29 03:53:08;;;;;;;9.65;0.93;;;9.60;99.90;;;;;;5098009;28;20048;-83
2023/05/29 03:55:34;;;;;;;7.80;1.05;;;9.60;99.90;;;;;;5065616;28;20123;-84
2023/05/29 03:57:59;;;;;;;7.35;1.00;;;9.60;99.90;;;;;;5059985;28;20080;-87
2023/05/29 04:00:25;;;;;;;16.70;3.70;;;9.60;99.90;;;;;;5075918;28;20036;-89
2023/05/29 04:02:51;;;;;;;9.35;1.00;;;9.60;99.90;;;;;;5075483;28;20433;-86
2023/05/29 04:05:17;;;;;;;10.68;1.45;;;9.80;99.90;;;;;;5075494;28;20049;-88
2023/05/29 04:07:42;;;;;;;7.85;0.90;;;9.60;99.90;;;;;;5066653;28;20040;-89
2023/05/29 04:10:08;;;;;;;8.85;0.90;;;9.70;99.90;;;;;;5060589;28;20397;-89
2023/05/29 04:12:34;;;;;;;12.98;1.13;;;9.70;99.90;;;;;;5075413;28;20094;-88
2023/05/29 04:15:00;;;;;;;6.55;1.40;;;9.70;99.90;;;;;;5057574;28;20036;-85
2023/05/29 04:17:26;;;;;;;5.15;1.10;;;10.30;99.90;;;;;;5057316;28;20138;-86
2023/05/29 04:19:51;;;;;;;8.55;0.90;;;9.70;99.90;;;;;;5061553;28;20036;-88
2023/05/29 04:22:17;;;;;;;6.47;1.10;;;9.70;99.90;;;;;;5095486;28;20051;-84
2023/05/29 04:24:43;;;;;;;7.50;1.00;;;10.00;99.90;;;;;;5095789;28;20039;-84
2023/05/29 04:27:12;;;;;;;8.65;1.42;;;9.60;99.90;;;;;;5077722;28;20089;-84
2023/05/29 04:29:42;;;;;;;6.78;1.23;;;9.80;99.90;;;;;;5095301;28;20102;-85
2023/05/29 04:32:09;;;;;;;8.43;0.90;;;10.10;99.90;;;;;;5076856;28;20044;-85
2023/05/29 04:34:35;;;;;;;8.20;1.25;;;9.60;99.90;;;;;;5075139;28;20485;-83
2023/05/29 04:37:04;;;;;;;6.72;1.15;;;9.70;99.90;;;;;;5073132;28;20056;-84
2023/05/29 04:39:31;;;;;;;5.82;1.45;;;9.70;99.90;;;;;;5093731;28;20047;-82
2023/05/29 04:41:58;;;;;;;5.95;0.93;;;9.60;99.90;;;;;;5095239;28;20066;-83
2023/05/29 04:44:29;;;;;;;12.82;1.15;;;9.70;99.90;;;;;;5077258;28;20434;-82
2023/05/29 04:46:56;;;;;;;8.02;1.10;;;9.70;99.90;;;;;;5076844;28;20047;-82
2023/05/29 04:49:23;;;;;;;6.38;0.82;;;9.70;99.90;;;;;;5094870;28;20088;-82
2023/05/29 04:51:52;;;;;;;8.25;1.13;;;10.30;99.90;;;;;;5060015;28;20112;-83
2023/05/29 04:54:19;;;;;;;4.00;1.23;;;9.80;99.90;;;;;;5070980;28;20048;-81
2023/05/29 04:56:46;;;;;;;7.90;1.05;;;9.80;99.90;;;;;;5034739;28;20056;-81
2023/05/29 04:59:12;;;;;;;10.90;1.25;;;10.30;99.90;;;;;;5048998;28;20045;-86
2023/05/29 05:01:38;;;;;;;6.50;1.05;;;9.80;99.90;;;;;;5070030;28;20048;-85
2023/05/29 05:04:04;;;;;;;11.63;1.70;;;9.90;99.90;;;;;;5039885;28;20173;-88
2023/05/29 05:06:29;;;;;;;6.22;0.75;;;9.90;99.90;;;;;;5056471;28;20556;-86
2023/05/29 05:08:55;;;;;;;7.60;1.50;;;10.10;99.90;;;;;;5056287;28;20127;-89
2023/05/29 05:11:23;;;;;;;7.78;1.60;;;10.10;99.90;;;;;;5057726;28;20508;-88
2023/05/29 05:13:49;;;;;;;9.23;1.30;;;10.30;99.90;;;;;;5071094;28;20044;-88
2023/05/29 05:16:16;;;;;;;11.95;1.38;;;10.40;99.90;;;;;;5072655;28;20055;-87
2023/05/29 05:18:43;;;;;;;12.90;1.65;;;10.90;99.90;;;;;;5073819;28;20094;-87
2023/05/29 05:21:08;;;;;;;10.13;1.77;;;10.80;99.90;;;;;;5070778;28;20055;-87
2023/05/29 05:23:34;;;;;;;8.55;0.90;;;11.00;99.90;;;;;;5072737;28;20060;-87
2023/05/29 05:26:00;;;;;;;9.07;1.58;;;10.80;99.90;;;;;;5073685;28;20040;-89
2023/05/29 05:28:25;;;;;;;7.22;1.00;;;10.80;99.90;;;;;;5072751;28;20051;-88
2023/05/29 05:30:51;;;;;;;12.27;1.20;;;11.00;99.90;;;;;;5072020;28;20078;-86
2023/05/29 05:33:17;;;;;;;9.00;1.45;;;11.10;99.90;;;;;;5059398;28;20110;-84
2023/05/29 05:35:43;;;;;;;9.50;1.38;;;11.30;99.90;;;;;;5064164;28;20565;-86
2023/05/29 05:38:09;;;;;;;10.90;1.85;;;11.30;99.90;;;;;;5071796;28;20071;-86
2023/05/29 05:40:35;;;;;;;14.27;1.55;;;11.40;99.90;;;;;;5070128;28;20093;-83
2023/05/29 05:43:00;;;;;;;11.25;1.88;;;11.50;99.90;;;;;;5064640;28;20082;-83
2023/05/29 05:45:26;;;;;;;10.60;1.50;;;11.50;99.90;;;;;;5073624;28;20033;-84
2023/05/29 05:47:51;;;;;;;8.25;1.00;;;11.40;99.90;;;;;;5055494;28;20044;-84
2023/05/29 05:50:17;;;;;;;7.63;1.58;;;11.50;99.90;;;;;;5073383;28;20048;-86
2023/05/29 05:52:43;;;;;;;10.27;1.30;;;11.80;99.90;;;;;;5071846;28;20037;-88
2023/05/29 05:55:09;;;;;;;9.63;1.10;;;11.70;99.90;;;;;;5066270;28;20128;-85
2023/05/29 05:57:35;;;;;;;8.02;1.10;;;;;;;;;;5073113;28;20044;-87
2023/05/29 06:00:04;;;;;;;8.13;1.20;;;;;;;;;;5072922;28;20048;-86
2023/05/29 06:02:30;;;;;;;15.10;1.83;;;;;;;;;;5075391;28;20028;-88
2023/05/29 06:04:56;;;;;;;8.45;1.95;;;;;;;;;;5091266;28;20044;-88
2023/05/29 06:07:22;;;;;;;12.77;1.63;;;;;;;;;;5074423;28;20412;-86
2023/05/29 06:09:49;;;;;;;9.30;1.35;;;;;;;;;;5093168;28;20036;-89
2023/05/29 06:12:15;;;;;;;6.43;0.80;;;;;;;;;;5093066;28;20565;-87
2023/05/29 06:14:41;;;;;;;8.60;1.20;;;;;;;;;;5077870;28;20096;-86
2023/05/29 06:17:08;;;;;;;9.48;1.40;;;;;;;;;;5072874;28;20197;-87
2023/05/29 06:19:34;;;;;;;9.32;1.65;;;;;;;;;;5054897;28;20446;-87
2023/05/29 06:22:00;;;;;;;12.23;1.60;;;;;;;;;;5055123;28;20048;-86
2023/05/29 06:24:27;;;;;;;7.70;1.10;;;;;;;;;;5055855;28;20118;-87
2023/05/29 06:26:53;;;;;;;7.18;1.50;;;;;;;;;;5072730;28;20131;-89
2023/05/29 06:29:19;;;;;;;7.55;1.27;;;;;;;;;;5072592;28;20162;-88
2023/05/29 06:31:45;;;;;;;12.75;1.20;;;;;;;;;;5072782;28;20040;-88
2023/05/29 06:34:11;;;;;;;8.80;1.25;;;;;;;;;;5072783;28;20553;-88
2023/05/29 06:36:38;;;;;;;11.80;2.45;;;;;;;;;;5056077;28;20052;-90
2023/05/29 06:39:04;;;;;;;14.57;2.72;;;;;;;;;;5085444;28;20081;-82
2023/05/29 06:41:30;;;;;;;12.25;1.50;;;;;;;;;;5093042;28;20509;-88
2023/05/29 06:43:56;;;;;;;9.10;1.38;;;;;;;;;;5092900;28;20083;-82
2023/05/29 06:46:22;;;;;;;16.23;2.40;;;;;;;;;;5090451;28;20048;-83
2023/05/29 06:48:48;;;;;;;8.55;1.20;;;;;;;;;;5074508;28;20056;-82
2023/05/29 06:51:15;;;;;;;8.15;1.10;;;;;;;;;;5094569;28;20052;-82
2023/05/29 06:53:41;;;;;;;9.73;1.38;;;;;;;;;;5079216;28;20493;-82
2023/05/29 06:56:08;;;;;;;11.98;1.50;;;;;;;;;;5097659;28;20075;-84
2023/05/29 06:58:34;;;;;;;15.13;1.50;;;;;;;;;;5095741;28;20040;-87
2023/05/29 07:01:01;;;;;;;9.88;1.05;;;;;;;;;;5096868;28;20386;-85
2023/05/29 07:03:27;;;;;;;12.38;1.50;;;;;;;;;;5094031;28;20053;-87
2023/05/29 07:05:53;;;;;;;5.85;0.93;;;;;;;;;;5082854;28;20040;-89
2023/05/29 07:08:20;;;;;;;8.88;1.38;;;;;;;;;;5086732;28;20052;-87
2023/05/29 07:10:46;;;;;;;12.13;1.30;;;;;;;;;;5079860;28;20072;-85
2023/05/29 07:13:18;;;;;;;13.45;1.55;;;;;;;;;;5064121;28;20044;-87
2023/05/29 07:15:44;;;;;;;11.15;1.48;;;;;;;;;;5100001;28;20050;-83
2023/05/29 07:18:11;;;;;;;12.82;1.58;;;;;;;;;;5082344;28;20047;-89
2023/05/29 07:20:37;;;;;;;9.13;1.25;;;;;;;;;;5100331;28;20048;-82
2023/05/29 07:23:03;;;;;;;9.73;1.25;;;;;;;;;;5103013;28;20091;-83
2023/05/29 07:25:30;;;;;;;12.73;1.60;;;;;;;;;;5086964;28;20047;-90
2023/05/29 07:27:56;;;;;;;6.38;0.82;;;;;;;;;;5082749;28;20040;-87
2023/05/29 07:30:22;;;;;;;9.48;1.10;;;;;;;;;;5103231;28;20044;-82
2023/05/29 07:32:48;;;;;;;12.57;1.50;;;;;;;;;;5113420;28;20095;-84
2023/05/29 07:35:14;;;;;;;9.07;1.40;;;;;;;;;;5108755;28;20048;-90
2023/05/29 07:37:40;;;;;;;8.77;1.35;;;;;;;;;;5100785;28;20044;-91
2023/05/29 07:40:07;;;;;;;9.43;0.88;;;;;;;;;;5080228;28;20055;-95
2023/05/29 07:42:33;;;;;;;9.95;1.30;;;;;;;;;;5098185;28;20048;-94
2023/05/29 07:45:00;;;;;;;11.25;2.28;;;;;;;;;;5096177;28;20041;-93
2023/05/29 07:47:26;;;;;;;9.57;1.33;;;;;;;;;;5079620;28;20084;-83
2023/05/29 07:49:53;;;;;;;4.55;1.00;;;;;;;;;;5078963;28;20403;-89
2023/05/29 07:52:19;;;;;;;14.65;1.83;;;;;;;;;;5078856;28;20044;-83
2023/05/29 07:54:45;;;;;;;12.30;1.77;;;;;;;;;;5078733;28;20049;-86
2023/05/29 07:57:11;;;;;;;8.88;0.98;;;;;;;;;;5079909;28;20040;-82
2023/05/29 07:59:40;;;;;;;11.38;2.45;;;;;;;;;;5079832;28;20047;-82
2023/05/29 08:02:06;;;;;;;7.57;1.48;;;;;;;;;;5078638;28;20508;-84
2023/05/29 08:04:32;;;;;;;13.07;1.42;;;;;;;;;;5056918;28;20053;-84
2023/05/29 08:07:05;;;;;;;3.65;0.88;;;;;;;;;;5073619;28;20400;-84
2023/05/29 08:09:31;;;;;;;12.23;2.13;;;;;;;;;;5057567;28;20067;-83
2023/05/29 08:11:59;;;;;;;7.22;1.23;;;;;;;;;;5075378;28;20131;-83
2023/05/29 08:14:25;;;;;;;10.23;1.38;;;;;;;;;;5093473;28;20044;-85
2023/05/29 08:16:51;;;;;;;9.30;1.38;;;;;;;;;;5095711;28;20404;-87
2023/05/29 08:19:17;;;;;;;14.45;1.48;;;;;;;;;;5085704;28;20056;-85
2023/05/29 08:21:44;;;;;;;11.60;1.63;;;;;;;;;;5090239;28;20043;-85
2023/05/29 08:24:10;;;;;;;11.05;1.83;;;;;;;;;;5095035;28;20044;-84
2023/05/29 08:26:36;;;;;;;9.93;2.60;;;;;;;;;;5095063;28;20077;-82
2023/05/29 08:29:02;;;;;;;11.25;2.05;;;;;;;;;;5077725;28;20126;-83
2023/05/29 08:31:30;;;;;;;8.75;1.45;;;;;;;;;;5095278;28;20088;-83
2023/05/29 08:33:57;;;;;;;11.70;2.13;;;;;;;;;;5091126;28;20044;-83
2023/05/29 08:36:23;;;;;;;16.52;2.08;;;;;;;;;;5095703;28;20385;-85
2023/05/29 08:38:49;;;;;;;12.43;1.42;;;;;;;;;;5095408;28;20383;-83
2023/05/29 08:41:20;;;;;;;14.45;1.50;;;;;;;;;;5078102;28;20558;-82
2023/05/29 08:43:47;;;;;;;8.60;1.25;;;;;;;;;;5095427;28;20040;-86
2023/05/29 08:46:14;;;;;;;14.45;1.85;;;;;;;;;;5093741;28;20118;-86
2023/05/29 08:48:40;;;;;;;9.85;1.70;;;;;;;;;;5082202;28;20053;-84
2023/05/29 08:51:08;;;;;;;17.17;1.63;;;;;;;;;;5075410;28;20045;-86
2023/05/29 08:53:34;;;;;;;13.13;1.30;;;;;;;;;;5076358;28;20429;-85
2023/05/29 08:56:00;;;;;;;12.13;1.58;;;;;;;;;;5079346;28;20044;-88
2023/05/29 08:58:26;;;;;;;10.23;1.10;;;;;;;;;;5082505;28;20127;-83
2023/05/29 09:00:53;;;;;;;14.82;1.83;;;;;;;;;;5080709;28;20119;-91
2023/05/29 09:03:20;;;;;;;10.05;2.50;;;;;;;;;;5080884;28;20048;-86
2023/05/29 09:05:47;;;;;;;6.68;1.17;;;;;;;;;;5084733;28;20040;-88
2023/05/29 09:08:14;;;;;;;9.27;1.25;;;;;;;;;;5096368;28;20047;-87
2023/05/29 09:10:43;;;;;;;13.07;1.63;;;;;;;;;;5094094;28;20597;-85
2023/05/29 09:13:09;;;;;;;11.52;1.02;;;;;;;;;;5093362;28;20119;-84
2023/05/29 09:15:38;;;;;;;6.97;1.73;;;;;;;;;;5088490;28;20040;-81
2023/05/29 09:18:04;;;;;;;7.60;1.08;;;;;;;;;;5055740;28;20048;-81
2023/05/29 09:20:31;;;;;;;11.45;1.35;;;;;;;;;;5074022;28;20095;-82
2023/05/29 09:23:03;;;;;;;11.05;1.55;;;14.70;99.90;;;;;;5056017;28;20044;-79
2023/05/29 09:25:31;;;;;;;10.23;1.10;;;14.50;99.90;;;;;;5074627;28;20041;-82
2023/05/29 09:28:08;;;;;;;11.10;1.38;;;14.90;99.90;;;;;;5091667;28;20052;-82
2023/05/29 09:30:42;;;;;;;12.43;1.85;;;14.60;99.90;;;;;;5058473;28;20378;-83
2023/05/29 09:33:13;;;;;;;12.20;1.85;;;14.70;99.90;;;;;;5055791;28;20489;-81
2023/05/29 09:35:49;;;;;;;13.45;1.50;;;14.70;99.90;;;;;;5074859;28;20041;-81
2023/05/29 09:38:18;;;;;;;8.73;1.73;;;14.60;99.90;;;;;;5073735;28;20095;-84
2023/05/29 09:40:47;;;;;;;15.57;1.50;;;14.70;99.90;;;;;;5077979;28;20032;-82
2023/05/29 09:43:16;;;;;;;9.57;1.60;;;14.80;99.90;;;;;;5092863;28;20040;-81
2023/05/29 09:45:43;;;;;;;10.88;1.42;;;15.00;99.90;;;;;;5075424;28;20097;-81
2023/05/29 09:48:27;;;;;;;11.25;1.23;;;15.00;99.90;;;;;;5093841;28;20051;-80
2023/05/29 09:50:55;;;;;;;11.43;1.48;;;15.00;99.90;;;;;;5093468;28;20036;-81
2023/05/29 09:53:25;;;;;;;10.55;1.80;;;15.10;99.90;;;;;;5086709;28;20561;-81
2023/05/29 09:55:52;;;;;;;9.95;1.40;;;15.40;99.90;;;;;;5090133;28;20040;-83
2023/05/29 09:58:19;;;;;;;11.32;1.73;;;15.40;99.90;;;;;;5089007;28;20112;-83
2023/05/29 10:00:45;;;;;;;9.40;1.45;;;15.60;99.90;;;;;;5091044;28;20044;-82
2023/05/29 10:03:14;;;;;;;12.07;1.52;;;15.60;99.90;;;;;;5079637;28;20504;-85
2023/05/29 10:05:41;;;;;;;7.15;1.08;;;15.40;99.90;;;;;;5093330;28;20036;-82
2023/05/29 10:08:11;;;;;;;12.15;1.60;;;15.50;99.90;;;;;;5093277;28;20063;-84
2023/05/29 10:10:40;;;;;;;6.57;1.15;;;15.40;99.90;;;;;;5092196;28;20044;-83
2023/05/29 10:13:09;;;;;;;8.73;1.35;;;15.50;99.90;;;;;;5073888;28;20052;-82
2023/05/29 10:15:36;;;;;;;11.43;1.58;;;15.50;99.90;;;;;;5075244;28;20076;-86
2023/05/29 10:18:19;;;;;;;4.80;0.95;;;15.60;99.90;;;;;;5092735;28;20082;-81
2023/05/29 10:20:50;;;;;;;7.78;1.10;;;15.80;99.90;;;;;;5092993;28;20051;-82
2023/05/29 10:23:16;;;;;;;11.65;1.45;;;15.90;99.90;;;;;;5074758;28;20044;-84
2023/05/29 10:25:45;;;;;;;9.98;2.08;;;15.60;99.90;;;;;;5058581;28;20086;-87
2023/05/29 10:28:11;;;;;;;9.07;1.80;;;15.70;99.90;;;;;;5072499;28;20104;-82
2023/05/29 10:30:44;;;;;;;7.85;1.00;;;15.70;99.90;;;;;;5072425;28;20052;-83
2023/05/29 10:33:18;;;;;;;12.00;1.58;;;15.90;99.90;;;;;;5072832;28;20040;-83
2023/05/29 10:35:47;;;;;;;17.10;3.58;;;16.00;99.90;;;;;;5056087;28;20072;-84
2023/05/29 10:38:16;;;;;;;8.80;1.17;;;16.10;99.90;;;;;;5073668;28;20037;-84
2023/05/29 10:40:43;;;;;;;16.95;1.40;;;16.10;99.90;;;;;;5072683;28;20041;-84
2023/05/29 10:43:11;;;;;;;5.57;1.45;;;15.80;99.90;;;;;;5072695;28;20420;-82
2023/05/29 10:45:39;;;;;;;7.20;1.00;;;16.30;99.90;;;;;;5079024;28;20105;-82
2023/05/29 10:48:08;;;;;;;14.15;2.00;;;16.30;99.90;;;;;;5082422;28;20044;-81
2023/05/29 10:50:45;;;;;;;10.40;1.23;;;16.10;99.90;;;;;;5072662;28;20049;-84
2023/05/29 10:53:16;;;;;;;8.57;1.20;;;15.90;99.90;;;;;;5072050;28;20488;-85
2023/05/29 10:55:45;;;;;;;8.13;1.33;;;16.30;99.90;;;;;;5072504;28;20101;-83
2023/05/29 10:58:18;;;;;;;6.75;1.25;;;16.20;99.90;;;;;;5072733;28;20416;-81
2023/05/29 11:00:48;;;;;;;12.45;1.20;;;16.10;99.90;;;;;;5077199;28;20392;-81
2023/05/29 11:03:22;;;;;;;10.10;2.08;;;16.00;99.90;;;;;;5091267;28;20050;-81
2023/05/29 11:06:19;;;;;;;13.13;1.55;;;16.10;99.90;;;;;;5084756;28;20124;-82
2023/05/29 11:08:47;;;;;;;8.45;1.27;;;16.00;99.90;;;;;;4975228;28;20055;-83
2023/05/29 11:11:14;;;;;;;12.80;1.77;;;15.80;99.90;;;;;;4974162;28;20043;-83
2023/05/29 11:13:42;;;;;;;10.68;1.30;;;15.70;99.90;;;;;;4971639;28;20419;-83
2023/05/29 11:16:38;;;;;;;14.25;1.48;;;15.80;99.90;;;;;;4961335;28;20381;-80
2023/05/29 11:19:06;;;;;;;9.07;1.40;;;15.70;99.90;;;;;;4990895;28;20085;-82
2023/05/29 11:21:46;;;;;;;9.77;1.52;;;15.90;99.90;;;;;;4974098;28;20134;-81
2023/05/29 11:24:27;;;;;;;8.95;1.25;;;15.80;99.90;;;;;;4971704;28;20055;-83
2023/05/29 11:26:55;;;;;;;6.78;1.30;;;16.20;99.90;;;;;;4971509;28;20073;-82
2023/05/29 11:29:27;;;;;;;7.70;1.17;;;16.30;99.90;;;;;;4955264;28;20134;-80
2023/05/29 11:32:05;;;;;;;9.40;1.55;;;16.30;99.90;;;;;;4971333;28;20058;-81
2023/05/29 11:34:32;;;;;;;8.73;1.30;;;16.40;99.90;;;;;;4964112;28;20042;-82
2023/05/29 11:37:04;;;;;;;7.40;1.30;;;16.30;99.90;;;;;;4991285;28;20182;-81
2023/05/29 11:39:32;;;;;;;16.00;1.40;;;16.40;99.90;;;;;;4991621;28;20400;-82
2023/05/29 11:42:00;;;;;;;6.70;2.13;;;16.40;99.90;;;;;;4975352;28;20126;-85
2023/05/29 11:44:26;;;;;;;9.02;1.58;;;16.20;99.90;;;;;;4997641;28;20489;-82
2023/05/29 11:47:06;;;;;;;9.25;1.27;;;16.40;99.90;;;;;;5059176;28;20041;-81
2023/05/29 11:49:33;;;;;;;11.55;1.20;;;16.50;99.90;;;;;;5083594;28;20047;-84
2023/05/29 11:52:09;;;;;;;11.50;2.00;;;16.40;99.90;;;;;;5078999;28;20057;-82
2023/05/29 11:54:35;;;;;;;8.70;1.42;;;16.40;99.90;;;;;;5095473;28;20074;-82
2023/05/29 11:57:02;;;;;;;10.80;1.10;;;16.30;99.90;;;;;;5091859;28;20131;-83
2023/05/29 11:59:34;;;;;;;8.15;1.75;;;16.60;99.90;;;;;;5095476;28;20044;-82
2023/05/29 12:02:03;;;;;;;9.75;1.38;;;16.50;99.90;;;;;;5095030;28;20139;-82
2023/05/29 12:04:29;;;;;;;7.57;1.45;;;16.70;99.90;;;;;;5095662;28;20055;-82
2023/05/29 12:06:55;;;;;;;9.65;1.17;;;16.70;99.90;;;;;;5095522;28;20519;-85
2023/05/29 12:09:28;;;;;;;9.48;1.48;;;16.80;99.90;;;;;;5070814;28;20058;-83
2023/05/29 12:12:03;;;;;;;4.90;1.02;;;16.70;99.90;;;;;;5075326;28;20053;-83
2023/05/29 12:14:29;;;;;;;16.95;1.67;;;16.80;99.90;;;;;;5075515;28;20047;-82
2023/05/29 12:16:55;;;;;;;8.45;1.15;;;16.50;99.90;;;;;;5058755;28;20072;-84
2023/05/29 12:19:21;;;;;;;9.30;1.23;;;16.40;99.90;;;;;;5075405;28;20066;-86
2023/05/29 12:21:46;;;;;;;11.52;1.48;;;16.40;99.90;;;;;;5058126;28;20453;-81
2023/05/29 12:24:13;;;;;;;9.40;1.20;;;16.50;99.90;;;;;;5058416;28;20074;-82
2023/05/29 12:26:39;;;;;;;5.47;1.10;;;16.90;99.90;;;;;;5059446;28;20075;-84
2023/05/29 12:29:05;;;;;;;10.70;1.02;;;17.10;99.90;;;;;;5057169;28;20102;-84
2023/05/29 12:31:32;;;;;;;5.75;1.15;;;17.00;99.90;;;;;;5076113;28;20385;-81
2023/05/29 12:34:14;;;;;;;10.85;1.40;;;17.10;99.90;;;;;;5072759;28;20450;-83
2023/05/29 12:36:43;;;;;;;10.65;1.33;;;17.20;99.90;;;;;;5095118;28;20044;-83
2023/05/29 12:39:09;;;;;;;6.18;1.30;;;17.30;99.90;;;;;;5095062;28;20127;-84
2023/05/29 12:41:37;;;;;;;5.35;0.70;;;17.20;99.90;;;;;;5094878;28;20044;-83
2023/05/29 12:44:04;;;;;;;10.98;1.30;;;17.40;99.20;;;;;;5094899;28;20047;-82
2023/05/29 12:46:45;;;;;;;4.95;1.42;;;17.40;99.50;;;;;;5094763;28;20047;-84
2023/05/29 12:49:15;;;;;;;8.18;0.93;;;17.60;99.90;;;;;;5094120;28;20101;-83
2023/05/29 12:51:45;;;;;;;11.85;1.13;;;17.70;99.90;;;;;;5094038;28;20062;-84
2023/05/29 12:54:13;;;;;;;8.23;1.20;;;17.70;99.80;;;;;;5093982;28;20117;-82
2023/05/29 12:56:42;;;;;;;10.02;1.00;;;17.70;99.90;;;;;;5075827;28;20097;-83
2023/05/29 12:59:10;;;;;;;7.18;1.40;;;17.60;99.90;;;;;;5074086;28;20084;-83
2023/05/29 13:01:40;;;;;;;7.10;1.00;;;17.40;99.60;;;;;;5074475;28;20128;-83
2023/05/29 13:04:06;;;;;;;8.93;0.98;;;17.50;99.90;;;;;;5074250;28;20037;-83
2023/05/29 13:06:37;;;;;;;8.45;1.45;;;17.40;99.90;;;;;;5074258;28;20044;-84
2023/05/29 13:09:03;;;;;;;10.00;1.00;;;17.50;99.00;;;;;;5074127;28;20067;-83
2023/05/29 13:11:29;;;;;;;6.35;1.13;;;17.70;99.90;;;;;;5080761;28;20488;-84
2023/05/29 13:13:54;;;;;;;7.63;0.98;;;17.70;99.20;;;;;;5094156;28;20051;-82
2023/05/29 13:16:21;;;;;;;6.47;0.88;;;17.60;99.30;;;;;;5076166;28;20036;-82